TimeCDT,TemperatureF,Dew PointF,Humidity,Sea Level PressureIn,VisibilityMPH,Wind Direction,Wind SpeedMPH,Gust SpeedMPH,PrecipitationIn,Events,Conditions,WindDirDegrees,DateUTC
12:53 AM,68.0,48.9,50,30.05,10.0,NW,9.2,-,N/A,,Clear,320,2013-09-12 05:53:00
1:53 AM,66.0,50.0,56,30.08,10.0,NNW,11.5,-,N/A,,Clear,330,2013-09-12 06:53:00
2:53 AM,63.0,51.1,65,30.09,10.0,NW,8.1,19.6,N/A,,Clear,320,2013-09-12 07:53:00
3:53 AM,61.0,51.1,70,30.11,10.0,NNW,9.2,-,N/A,,Clear,330,2013-09-12 08:53:00
4:53 AM,59.0,52.0,78,30.12,10.0,NW,6.9,-,N/A,,Clear,320,2013-09-12 09:53:00
5:53 AM,57.0,52.0,83,30.14,10.0,WNW,6.9,-,N/A,,Clear,300,2013-09-12 10:53:00
6:53 AM,57.0,52.0,83,30.16,10.0,NNW,9.2,-,N/A,,Clear,330,2013-09-12 11:53:00
7:53 AM,60.1,51.1,72,30.17,10.0,North,10.4,-,N/A,,Clear,350,2013-09-12 12:53:00
8:53 AM,63.0,52.0,67,30.18,10.0,North,8.1,-,N/A,,Clear,350,2013-09-12 13:53:00
9:53 AM,66.0,51.1,59,30.20,10.0,NNW,10.4,-,N/A,,Partly Cloudy,330,2013-09-12 14:53:00
10:53 AM,69.1,53.1,57,30.19,10.0,NNW,15.0,-,N/A,,Scattered Clouds,340,2013-09-12 15:53:00
11:53 AM,72.0,50.0,46,30.19,10.0,North,17.3,24.2,N/A,,Scattered Clouds,10,2013-09-12 16:53:00
12:53 PM,72.0,48.9,44,30.19,10.0,NNW,12.7,-,N/A,,Mostly Cloudy,330,2013-09-12 17:53:00
1:53 PM,72.0,45.0,38,30.18,10.0,North,15.0,21.9,N/A,,Mostly Cloudy,360,2013-09-12 18:53:00
2:53 PM,73.0,42.1,33,30.18,10.0,North,17.3,25.3,N/A,,Mostly Cloudy,350,2013-09-12 19:53:00
3:53 PM,73.9,43.0,33,30.17,10.0,North,16.1,23.0,N/A,,Scattered Clouds,350,2013-09-12 20:53:00
4:53 PM,71.1,43.0,36,30.17,10.0,NNW,19.6,-,N/A,,Scattered Clouds,340,2013-09-12 21:53:00
5:53 PM,72.0,43.0,35,30.17,10.0,North,13.8,-,N/A,,Scattered Clouds,350,2013-09-12 22:53:00
6:53 PM,70.0,42.1,36,30.18,10.0,North,15.0,20.7,N/A,,Partly Cloudy,360,2013-09-12 23:53:00
7:53 PM,66.9,44.1,44,30.19,10.0,North,9.2,20.7,N/A,,Partly Cloudy,360,2013-09-13 00:53:00
8:53 PM,64.9,43.0,45,30.21,10.0,North,10.4,-,N/A,,Partly Cloudy,360,2013-09-13 01:53:00
9:53 PM,63.0,44.1,50,30.22,10.0,North,8.1,-,N/A,,Clear,360,2013-09-13 02:53:00
10:53 PM,61.0,44.1,54,30.23,10.0,North,6.9,-,N/A,,Clear,360,2013-09-13 03:53:00
11:53 PM,59.0,44.1,58,30.23,10.0,North,5.8,-,N/A,,Clear,360,2013-09-13 04:53:00